createdAt,value
2018-05-09T00:00:37.078Z,96781.99
2018-05-09T00:03:06.425Z,96786.66
2018-05-09T00:05:35.240Z,96788.81
2018-05-09T00:08:04.094Z,96787.77
2018-05-09T00:10:33.695Z,96787.63
2018-05-09T00:13:02.437Z,96787.66
2018-05-09T00:15:33.709Z,96781.45
2018-05-09T00:18:02.509Z,96782.60
2018-05-09T00:20:31.247Z,96772.98
2018-05-09T00:22:59.990Z,96784.41
2018-05-09T00:25:29.433Z,96773.20
2018-05-09T00:27:58.208Z,96770.48
2018-05-09T00:30:27.024Z,96767.97
2018-05-09T00:32:56.669Z,96772.77
2018-05-09T00:35:26.255Z,96769.94
2018-05-09T00:37:55.719Z,96772.83
2018-05-09T00:40:25.927Z,96772.20
2018-05-09T00:42:54.714Z,96769.77
2018-05-09T00:45:24.252Z,96765.12
2018-05-09T00:47:53.016Z,96764.56
2018-05-09T00:50:22.430Z,96770.23
2018-05-09T00:52:51.206Z,96755.39
2018-05-09T00:55:20.211Z,96758.11
2018-05-09T00:57:48.979Z,96756.22
2018-05-09T01:00:19.041Z,96765.00
2018-05-09T01:02:47.774Z,96762.31
2018-05-09T01:05:16.538Z,96761.47
2018-05-09T01:07:46.485Z,96764.24
2018-05-09T01:10:15.218Z,96758.48
2018-05-09T01:12:49.487Z,96756.43
2018-05-09T01:15:22.756Z,96756.59
2018-05-09T01:17:53.404Z,96758.50
2018-05-09T01:20:27.927Z,96759.40
2018-05-09T01:25:42.954Z,96764.75
2018-05-09T01:28:17.140Z,96756.72
2018-05-09T01:30:50.923Z,96759.47
2018-05-09T01:33:25.239Z,96756.18
2018-05-09T01:35:59.504Z,96752.45
2018-05-09T01:38:35.446Z,96747.30
2018-05-09T01:41:10.021Z,96751.11
2018-05-09T01:43:42.926Z,96748.16
2018-05-09T01:46:17.281Z,96755.48
2018-05-09T01:48:50.572Z,96748.25
2018-05-09T01:51:26.362Z,96751.47
2018-05-09T01:54:02.340Z,96743.77
2018-05-09T01:56:35.746Z,96742.92
2018-05-09T01:59:11.547Z,96749.47
2018-05-09T02:01:49.785Z,96737.61
2018-05-09T02:04:25.546Z,96740.97
2018-05-09T02:06:58.553Z,96738.67
2018-05-09T02:09:33.714Z,96734.62
2018-05-09T02:12:05.095Z,96739.75
2018-05-09T02:14:36.582Z,96736.75
2018-05-09T02:17:06.898Z,96752.53
2018-05-09T02:19:44.345Z,96740.13
2018-05-09T02:22:17.354Z,96740.23
2018-05-09T02:24:54.176Z,96744.38
2018-05-09T02:27:29.976Z,96741.71
2018-05-09T02:30:05.614Z,96736.77
2018-05-09T02:32:40.802Z,96740.15
2018-05-09T02:35:12.974Z,96737.84
2018-05-09T02:37:44.568Z,96731.83
2018-05-09T02:40:17.914Z,96733.03
2018-05-09T02:42:51.422Z,96734.99
2018-05-09T02:45:24.736Z,96735.06
2018-05-09T02:47:59.884Z,96736.76
2018-05-09T02:50:33.646Z,96731.13
2018-05-09T02:53:09.565Z,96730.59
2018-05-09T02:55:41.981Z,96732.98
2018-05-09T02:58:16.566Z,96732.88
2018-05-09T03:00:52.995Z,96735.78
2018-05-09T03:03:24.671Z,96742.05
2018-05-09T03:05:56.975Z,96745.94
2018-05-09T03:08:33.834Z,96743.04
2018-05-09T03:11:07.976Z,96744.25
2018-05-09T03:13:40.635Z,96739.45
2018-05-09T03:16:13.939Z,96740.67
2018-05-09T03:18:47.173Z,96742.80
2018-05-09T03:21:16.740Z,96745.73
2018-05-09T03:23:45.518Z,96741.64
2018-05-09T03:26:14.275Z,96742.60
2018-05-09T03:28:44.927Z,96741.27
2018-05-09T03:31:14.095Z,96747.46
2018-05-09T03:33:44.692Z,96745.13
2018-05-09T03:36:14.231Z,96742.93
2018-05-09T03:38:45.057Z,96743.30
2018-05-09T03:41:14.146Z,96749.09
2018-05-09T03:43:42.919Z,96745.37
2018-05-09T03:46:11.771Z,96753.09
2018-05-09T03:48:40.588Z,96744.98
2018-05-09T03:51:09.399Z,96747.50
2018-05-09T03:53:38.235Z,96745.01
2018-05-09T03:56:07.764Z,96751.92
2018-05-09T03:58:36.510Z,96750.98
2018-05-09T04:01:06.118Z,96752.00
2018-05-09T04:03:47.261Z,96751.61
2018-05-09T04:06:27.652Z,96760.89
2018-05-09T04:09:08.133Z,96762.00
2018-05-09T04:11:37.632Z,96755.02
2018-05-09T04:14:06.462Z,96750.84
2018-05-09T04:16:35.275Z,96754.01
2018-05-09T04:19:04.102Z,96762.55
2018-05-09T04:21:33.740Z,96758.30
2018-05-09T04:24:02.465Z,96760.70
2018-05-09T04:26:31.216Z,96763.55
2018-05-09T04:29:00.343Z,96762.56
2018-05-09T04:31:29.077Z,96756.98
2018-05-09T04:33:57.865Z,96755.03
2018-05-09T04:36:27.394Z,96748.63
2018-05-09T04:38:56.131Z,96751.41
2018-05-09T04:41:24.916Z,96749.41
2018-05-09T04:43:53.687Z,96745.77
2018-05-09T04:46:22.489Z,96742.07
2018-05-09T04:48:52.038Z,96745.42
2018-05-09T04:51:20.780Z,96748.34
2018-05-09T04:53:49.574Z,96733.98
2018-05-09T04:56:18.390Z,96740.90
2018-05-09T04:58:47.249Z,96737.21
2018-05-09T05:01:16.012Z,96730.46
2018-05-09T05:03:45.608Z,96732.73
2018-05-09T05:06:14.803Z,96733.64
2018-05-09T05:08:43.560Z,96734.87
2018-05-09T05:11:12.382Z,96740.25
2018-05-09T05:13:41.177Z,96732.56
2018-05-09T05:16:09.948Z,96736.63
2018-05-09T05:18:39.531Z,96740.27
2018-05-09T05:21:08.272Z,96745.00
2018-05-09T05:23:37.040Z,96741.33
2018-05-09T05:26:05.806Z,96740.17
2018-05-09T05:28:35.334Z,96741.20
2018-05-09T05:31:04.080Z,96738.58
2018-05-09T05:33:32.922Z,96739.87
2018-05-09T05:36:01.694Z,96743.22
2018-05-09T05:38:32.215Z,96748.10
2018-05-09T05:41:01.017Z,96744.60
2018-05-09T05:43:30.580Z,96743.08
2018-05-09T05:45:59.330Z,96746.22
2018-05-09T05:48:28.126Z,96751.30
2018-05-09T05:50:56.865Z,96743.51
2018-05-09T05:53:26.490Z,96745.14
2018-05-09T05:55:55.255Z,96742.39
2018-05-09T05:58:24.011Z,96739.92
2018-05-09T06:00:52.746Z,96747.52
2018-05-09T06:03:22.276Z,96746.78
2018-05-09T06:05:51.020Z,96744.83
2018-05-09T06:08:19.768Z,96746.59
2018-05-09T06:10:48.530Z,96745.19
2018-05-09T06:13:17.579Z,96746.19
2018-05-09T06:15:46.327Z,96752.11
2018-05-09T06:18:15.138Z,96745.58
2018-05-09T06:20:43.892Z,96740.91
2018-05-09T06:23:12.645Z,96745.30
2018-05-09T06:25:41.543Z,96750.53
2018-05-09T06:28:10.307Z,96741.81
2018-05-09T06:30:39.289Z,96748.69
2018-05-09T06:33:08.181Z,96743.81
2018-05-09T06:35:36.979Z,96741.39
2018-05-09T06:38:05.714Z,96747.24
2018-05-09T06:40:34.516Z,96745.96
2018-05-09T06:43:03.538Z,96746.70
2018-05-09T06:45:32.290Z,96746.72
2018-05-09T06:48:01.787Z,96750.47
2018-05-09T06:50:31.471Z,96750.53
2018-05-09T06:53:00.195Z,96740.55
2018-05-09T06:55:29.031Z,96749.34
2018-05-09T06:57:57.769Z,96745.43
2018-05-09T07:00:26.497Z,96742.76
2018-05-09T07:02:55.343Z,96747.72
2018-05-09T07:05:24.093Z,96747.58
2018-05-09T07:07:52.830Z,96746.69
2018-05-09T07:10:21.606Z,96746.27
2018-05-09T07:12:50.368Z,96741.43
2018-05-09T07:15:19.136Z,96745.73
2018-05-09T07:17:48.900Z,96738.61
2018-05-09T07:20:18.170Z,96741.81
2018-05-09T07:22:48.000Z,96738.66
2018-05-09T07:25:16.812Z,96740.67
2018-05-09T07:27:45.542Z,96740.73
2018-05-09T07:30:14.307Z,96732.92
2018-05-09T07:32:43.094Z,96740.86
2018-05-09T07:35:11.841Z,96744.58
2018-05-09T07:37:40.631Z,96737.57
2018-05-09T07:40:09.408Z,96735.39
2018-05-09T07:42:38.167Z,96737.28
2018-05-09T07:45:06.914Z,96735.69
2018-05-09T07:47:35.722Z,96736.23
2018-05-09T07:50:04.513Z,96732.14
2018-05-09T07:52:33.297Z,96736.11
2018-05-09T07:55:02.148Z,96737.22
2018-05-09T07:57:30.873Z,96738.20
2018-05-09T07:59:59.651Z,96739.81
2018-05-09T08:02:28.455Z,96739.44
2018-05-09T08:04:57.174Z,96734.46
2018-05-09T08:07:26.108Z,96734.77
2018-05-09T08:09:54.903Z,96726.59
2018-05-09T08:12:23.632Z,96731.20
2018-05-09T08:14:52.535Z,96729.09
2018-05-09T08:17:21.462Z,96736.67
2018-05-09T08:19:50.367Z,96735.77
2018-05-09T08:22:19.133Z,96731.92
2018-05-09T08:24:48.624Z,96738.73
2018-05-09T08:27:18.462Z,96737.09
2018-05-09T08:29:47.253Z,96729.71
2018-05-09T08:32:16.142Z,96735.02
2018-05-09T08:34:44.896Z,96733.83
2018-05-09T08:37:13.877Z,96731.45
2018-05-09T08:39:42.682Z,96735.84
2018-05-09T08:42:11.446Z,96734.98
2018-05-09T08:44:40.216Z,96732.48
2018-05-09T08:47:08.994Z,96734.15
2018-05-09T08:49:37.754Z,96731.22
2018-05-09T08:52:06.489Z,96733.88
2018-05-09T08:54:35.341Z,96733.84
2018-05-09T08:57:04.192Z,96730.31
2018-05-09T08:59:33.035Z,96740.64
2018-05-09T09:02:02.600Z,96724.74
2018-05-09T09:04:31.365Z,96732.10
2018-05-09T09:07:00.125Z,96724.84
2018-05-09T09:09:28.914Z,96726.09
2018-05-09T09:11:57.706Z,96717.23
2018-05-09T09:14:26.492Z,96729.02
2018-05-09T09:16:55.248Z,96727.35
2018-05-09T09:19:23.994Z,96731.05
2018-05-09T09:21:52.781Z,96735.88
2018-05-09T09:24:21.606Z,96734.72
2018-05-09T09:26:50.337Z,96737.81
2018-05-09T09:29:19.251Z,96738.03
2018-05-09T09:31:49.025Z,96730.72
2018-05-09T09:34:19.620Z,96730.40
2018-05-09T09:36:49.186Z,96730.45
2018-05-09T09:39:17.972Z,96730.14
2018-05-09T09:41:46.742Z,96720.94
2018-05-09T09:44:15.554Z,96724.58
2018-05-09T09:46:44.669Z,96721.36
2018-05-09T09:49:13.480Z,96717.23
2018-05-09T09:51:42.292Z,96713.93
2018-05-09T09:54:11.108Z,96708.27
2018-05-09T09:56:40.337Z,96715.47
2018-05-09T09:59:09.114Z,96716.44
2018-05-09T10:01:38.030Z,96710.79
2018-05-09T10:04:06.665Z,96708.42
2018-05-09T10:06:36.372Z,96709.37
2018-05-09T10:09:05.959Z,96708.78
2018-05-09T10:11:34.732Z,96711.14
2018-05-09T10:14:03.681Z,96707.56
2018-05-09T10:16:32.436Z,96692.68
2018-05-09T10:19:01.195Z,96701.05
2018-05-09T10:21:29.976Z,96694.97
2018-05-09T10:23:58.768Z,96697.48
2018-05-09T10:26:27.551Z,96695.27
2018-05-09T10:28:56.427Z,96690.83
2018-05-09T10:31:25.314Z,96699.45
2018-05-09T10:33:54.346Z,96691.66
2018-05-09T10:36:23.169Z,96688.77
2018-05-09T10:38:51.977Z,96693.22
2018-05-09T10:41:20.753Z,96695.18
2018-05-09T10:43:50.777Z,96697.88
2018-05-09T10:46:19.600Z,96698.76
2018-05-09T10:48:48.364Z,96688.88
2018-05-09T10:51:17.158Z,96685.97
2018-05-09T10:53:46.663Z,96687.59
2018-05-09T10:56:15.442Z,96679.80
2018-05-09T10:58:45.029Z,96686.47
2018-05-09T11:01:13.832Z,96682.47
2018-05-09T11:03:42.633Z,96678.52
2018-05-09T11:06:11.425Z,96681.59
2018-05-09T11:08:40.191Z,96667.84
2018-05-09T11:11:09.053Z,96671.59
2018-05-09T11:13:37.993Z,96676.59
2018-05-09T11:16:07.556Z,96674.09
2018-05-09T11:18:36.316Z,96679.66
2018-05-09T11:21:05.156Z,96671.25
2018-05-09T11:23:33.900Z,96662.73
2018-05-09T11:26:02.666Z,96672.51
2018-05-09T11:28:31.540Z,96666.95
2018-05-09T11:31:00.523Z,96665.77
2018-05-09T11:33:29.269Z,96667.32
2018-05-09T11:35:58.146Z,96666.05
2018-05-09T11:38:26.927Z,96662.89
2018-05-09T11:40:55.673Z,96664.57
2018-05-09T11:43:24.441Z,96663.51
2018-05-09T11:45:53.177Z,96661.88
2018-05-09T11:48:21.988Z,96658.53
2018-05-09T11:50:51.669Z,96661.55
2018-05-09T11:53:20.505Z,96648.45
2018-05-09T11:55:50.101Z,96645.02
2018-05-09T11:58:19.007Z,96648.92
2018-05-09T12:00:47.746Z,96651.48
2018-05-09T12:03:16.672Z,96652.08
2018-05-09T12:05:45.442Z,96651.52
2018-05-09T12:08:14.173Z,96642.89
2018-05-09T12:10:43.064Z,96651.61
2018-05-09T12:13:11.703Z,96650.06
2018-05-09T12:15:40.488Z,96648.11
2018-05-09T12:18:09.375Z,96642.41
2018-05-09T12:20:38.913Z,96641.98
2018-05-09T12:23:07.713Z,96635.72
2018-05-09T12:25:36.502Z,96631.90
2018-05-09T12:28:05.353Z,96635.94
2018-05-09T12:30:34.129Z,96637.76
2018-05-09T12:33:03.944Z,96630.53
2018-05-09T12:35:33.496Z,96630.52
2018-05-09T12:38:02.363Z,96633.60
2018-05-09T12:40:31.115Z,96629.19
2018-05-09T12:42:59.919Z,96631.28
2018-05-09T12:45:28.706Z,96624.70
2018-05-09T12:47:57.455Z,96627.42
2018-05-09T12:50:26.292Z,96621.62
2018-05-09T12:52:55.068Z,96623.27
2018-05-09T12:55:24.707Z,96627.05
2018-05-09T12:57:54.338Z,96625.91
2018-05-09T13:00:23.071Z,96617.15
2018-05-09T13:02:51.847Z,96612.55
2018-05-09T13:05:20.891Z,96618.70
2018-05-09T13:07:49.785Z,96603.86
2018-05-09T13:10:18.572Z,96597.83
2018-05-09T13:12:47.425Z,96598.52
2018-05-09T13:15:16.176Z,96594.13
2018-05-09T13:17:44.965Z,96584.77
2018-05-09T13:20:13.699Z,96583.19
2018-05-09T13:22:43.271Z,96580.42
2018-05-09T13:25:12.048Z,96575.34
2018-05-09T13:27:40.843Z,96576.56
2018-05-09T13:30:09.619Z,96572.77
2018-05-09T13:32:38.394Z,96566.70
2018-05-09T13:35:08.256Z,96574.93
2018-05-09T13:37:37.041Z,96570.41
2018-05-09T13:40:05.908Z,96572.09
2018-05-09T13:42:35.462Z,96573.41
2018-05-09T13:45:04.267Z,96569.99
2018-05-09T13:47:33.031Z,96562.55
2018-05-09T13:50:01.807Z,96560.43
2018-05-09T13:52:30.596Z,96552.95
2018-05-09T13:54:59.394Z,96551.39
2018-05-09T13:57:28.170Z,96547.98
2018-05-09T13:59:56.921Z,96553.77
2018-05-09T14:02:25.746Z,96554.20
2018-05-09T14:04:54.517Z,96549.78
2018-05-09T14:07:23.295Z,96544.09
2018-05-09T14:09:52.135Z,96543.37
2018-05-09T14:12:21.428Z,96549.02
2018-05-09T14:14:51.233Z,96541.48
2018-05-09T14:17:19.970Z,96544.59
2018-05-09T14:19:48.756Z,96533.98
2018-05-09T14:22:17.493Z,96538.24
2018-05-09T14:24:46.285Z,96527.13
2018-05-09T14:27:15.204Z,96529.55
2018-05-09T14:29:43.987Z,96530.11
2018-05-09T14:32:12.879Z,96527.32
2018-05-09T14:34:41.583Z,96526.37
2018-05-09T14:37:11.134Z,96535.66
2018-05-09T14:39:39.946Z,96528.30
2018-05-09T14:42:08.890Z,96527.30
2018-05-09T14:44:37.641Z,96516.31
2018-05-09T14:47:06.407Z,96523.88
2018-05-09T14:49:35.289Z,96520.27
2018-05-09T14:52:04.033Z,96516.73
2018-05-09T14:54:32.933Z,96519.16
2018-05-09T14:57:01.629Z,96516.05
2018-05-09T14:59:30.367Z,96511.11
2018-05-09T15:01:59.129Z,96518.37
2018-05-09T15:04:27.888Z,96515.61
2018-05-09T15:06:57.565Z,96512.48
2018-05-09T15:09:26.372Z,96512.56
2018-05-09T15:11:55.888Z,96511.00
2018-05-09T15:14:25.412Z,96512.64
2018-05-09T15:16:54.230Z,96517.19
2018-05-09T15:19:22.982Z,96511.34
2018-05-09T15:21:52.144Z,96507.98
2018-05-09T15:24:20.900Z,96511.11
2018-05-09T15:26:49.655Z,96509.53
2018-05-09T15:29:18.387Z,96504.67
2018-05-09T15:31:47.160Z,96506.90
2018-05-09T15:34:16.027Z,96507.44
2018-05-09T15:36:44.801Z,96508.61
2018-05-09T15:39:13.565Z,96499.80
2018-05-09T15:41:42.327Z,96503.22
2018-05-09T15:44:11.516Z,96509.93
2018-05-09T15:46:40.240Z,96509.53
2018-05-09T15:49:09.112Z,96504.17
2018-05-09T15:51:37.935Z,96499.89
2018-05-09T15:54:07.435Z,96498.91
2018-05-09T15:56:36.994Z,96504.17
2018-05-09T15:59:05.764Z,96505.84
2018-05-09T16:01:34.493Z,96498.09
2018-05-09T16:04:03.254Z,96497.66
2018-05-09T16:06:32.981Z,96497.97
2018-05-09T16:09:01.741Z,96504.55
2018-05-09T16:11:30.496Z,96508.73
2018-05-09T16:13:59.244Z,96512.09
2018-05-09T16:16:28.049Z,96513.61
2018-05-09T16:18:56.859Z,96513.48
2018-05-09T16:21:25.616Z,96514.61
2018-05-09T16:23:54.401Z,96518.41
2018-05-09T16:26:23.483Z,96521.25
2018-05-09T16:28:53.450Z,96523.91
2018-05-09T16:31:22.613Z,96520.25
2018-05-09T16:33:51.404Z,96525.80
2018-05-09T16:36:21.073Z,96524.19
2018-05-09T16:38:49.835Z,96527.63
2018-05-09T16:41:18.583Z,96520.38
2018-05-09T16:43:47.351Z,96520.69
2018-05-09T16:46:16.064Z,96524.28
2018-05-09T16:48:44.826Z,96522.42
2018-05-09T16:51:13.575Z,96523.25
2018-05-09T16:53:42.364Z,96523.75
2018-05-09T16:56:11.234Z,96515.71
2018-05-09T16:58:39.976Z,96516.58
2018-05-09T17:01:08.745Z,96522.22
2018-05-09T17:03:37.481Z,96529.44
2018-05-09T17:06:06.222Z,96529.35
2018-05-09T17:08:35.720Z,96528.84
2018-05-09T17:11:05.365Z,96518.84
2018-05-09T17:13:34.885Z,96528.75
2018-05-09T17:16:04.438Z,96530.48
2018-05-09T17:18:33.205Z,96529.77
2018-05-09T17:21:01.969Z,96526.34
2018-05-09T17:23:32.052Z,96533.42
2018-05-09T17:26:01.552Z,96531.38
2018-05-09T17:28:31.070Z,96526.61
2018-05-09T17:30:59.805Z,96530.66
2018-05-09T17:33:28.607Z,96530.91
2018-05-09T17:35:57.377Z,96540.42
2018-05-09T17:38:26.175Z,96530.22
2018-05-09T17:40:55.631Z,96535.13
2018-05-09T17:43:25.142Z,96528.45
2018-05-09T17:45:53.952Z,96539.51
2018-05-09T17:48:23.025Z,96541.09
2018-05-09T17:50:51.792Z,96547.06
2018-05-09T17:53:20.532Z,96549.41
2018-05-09T17:55:49.347Z,96550.91
2018-05-09T17:58:18.734Z,96549.98
2018-05-09T18:00:47.512Z,96548.90
2018-05-09T18:03:16.272Z,96550.98
2018-05-09T18:05:45.208Z,96553.09
2018-05-09T18:08:13.978Z,96559.62
2018-05-09T18:10:42.757Z,96563.24
2018-05-09T18:13:12.307Z,96565.56
2018-05-09T18:15:41.051Z,96558.07
2018-05-09T18:18:11.495Z,96554.61
2018-05-09T18:20:40.257Z,96556.93
2018-05-09T18:23:09.010Z,96549.43
2018-05-09T18:25:37.896Z,96558.81
2018-05-09T18:28:06.641Z,96550.95
2018-05-09T18:30:35.397Z,96559.33
2018-05-09T18:33:04.950Z,96555.01
2018-05-09T18:35:33.695Z,96559.23
2018-05-09T18:38:02.414Z,96556.66
2018-05-09T18:40:31.313Z,96559.45
2018-05-09T18:43:00.066Z,96561.87
2018-05-09T18:45:28.867Z,96565.70
2018-05-09T18:47:58.361Z,96568.68
2018-05-09T18:50:27.117Z,96566.69
2018-05-09T18:52:56.207Z,96572.59
2018-05-09T18:55:24.969Z,96574.86
2018-05-09T18:57:53.727Z,96580.19
2018-05-09T19:00:23.408Z,96580.30
2018-05-09T19:02:53.301Z,96581.27
2018-05-09T19:05:23.974Z,96584.00
2018-05-09T19:07:53.587Z,96583.84
2018-05-09T19:10:24.156Z,96585.14
2018-05-09T19:12:53.489Z,96583.16
2018-05-09T19:15:23.295Z,96588.86
2018-05-09T19:17:52.674Z,96592.23
2018-05-09T19:20:21.440Z,96598.26
2018-05-09T19:22:50.181Z,96607.80
2018-05-09T19:25:18.960Z,96618.34
2018-05-09T19:27:47.887Z,96616.61
2018-05-09T19:30:16.666Z,96618.05
2018-05-09T19:32:45.449Z,96623.02
2018-05-09T19:35:14.329Z,96622.13
2018-05-09T19:37:43.085Z,96616.24
2018-05-09T19:40:12.687Z,96624.17
2018-05-09T19:42:41.471Z,96618.19
2018-05-09T19:45:10.274Z,96622.59
2018-05-09T19:47:39.050Z,96630.22
2018-05-09T19:50:08.847Z,96636.63
2018-05-09T19:52:37.584Z,96637.71
2018-05-09T19:55:06.358Z,96630.50
2018-05-09T19:57:35.063Z,96639.84
2018-05-09T20:00:03.830Z,96640.09
2018-05-09T20:02:32.578Z,96644.38
2018-05-09T20:05:01.376Z,96649.32
2018-05-09T20:07:30.489Z,96648.91
2018-05-09T20:09:59.992Z,96643.03
2018-05-09T20:12:29.533Z,96647.42
2018-05-09T20:14:58.288Z,96644.57
2018-05-09T20:17:27.708Z,96649.78
2018-05-09T20:19:56.441Z,96640.29
2018-05-09T20:22:25.845Z,96650.38
2018-05-09T20:24:55.615Z,96647.36
2018-05-09T20:27:24.389Z,96653.52
2018-05-09T20:29:53.855Z,96649.03
2018-05-09T20:32:34.337Z,96650.52
2018-05-09T20:35:03.844Z,96647.14
2018-05-09T20:37:32.666Z,96647.94
2018-05-09T20:40:01.461Z,96654.23
2018-05-09T20:42:30.219Z,96646.70
2018-05-09T20:44:58.984Z,96647.13
2018-05-09T20:47:28.293Z,96649.48
2018-05-09T20:49:57.063Z,96646.96
2018-05-09T20:52:25.904Z,96653.88
2018-05-09T20:54:55.414Z,96660.98
2018-05-09T20:57:24.176Z,96661.09
2018-05-09T20:59:54.104Z,96659.80
2018-05-09T21:02:24.833Z,96663.47
2018-05-09T21:04:56.461Z,96664.15
2018-05-09T21:07:25.244Z,96659.34
2018-05-09T21:09:54.007Z,96660.66
2018-05-09T21:12:22.748Z,96664.91
2018-05-09T21:14:52.135Z,96664.26
2018-05-09T21:17:21.018Z,96660.16
2018-05-09T21:19:49.750Z,96669.74
2018-05-09T21:22:19.291Z,96674.23
2018-05-09T21:24:49.447Z,96664.31
2018-05-09T21:27:18.320Z,96674.33
2018-05-09T21:29:47.784Z,96668.38
2018-05-09T21:32:17.393Z,96670.67
2018-05-09T21:34:46.162Z,96674.00
2018-05-09T21:37:16.088Z,96675.80
2018-05-09T21:39:46.712Z,96679.86
2018-05-09T21:42:16.228Z,96676.80
2018-05-09T21:44:45.364Z,96677.70
2018-05-09T21:47:16.049Z,96682.94
2018-05-09T21:49:44.785Z,96682.03
2018-05-09T21:52:13.549Z,96675.11
2018-05-09T21:54:42.466Z,96676.75
2018-05-09T21:57:11.904Z,96675.29
2018-05-09T21:59:41.159Z,96679.05
2018-05-09T22:02:10.111Z,96678.58
2018-05-09T22:04:38.896Z,96681.26
2018-05-09T22:07:07.625Z,96681.26
2018-05-09T22:09:37.814Z,96684.06
2018-05-09T22:12:06.641Z,96680.16
2018-05-09T22:14:35.402Z,96683.71
2018-05-09T22:17:04.288Z,96683.34
2018-05-09T22:19:33.072Z,96682.62
2018-05-09T22:22:02.602Z,96680.43
2018-05-09T22:24:31.396Z,96680.83
2018-05-09T22:27:00.148Z,96679.27
2018-05-09T22:29:29.693Z,96679.47
2018-05-09T22:31:58.532Z,96672.66
2018-05-09T22:34:27.342Z,96667.84
2018-05-09T22:36:56.252Z,96671.23
2018-05-09T22:39:25.216Z,96669.61
2018-05-09T22:41:55.524Z,96671.45
2018-05-09T22:44:24.420Z,96669.87
2018-05-09T22:46:53.473Z,96666.72
2018-05-09T22:49:22.297Z,96664.12
2018-05-09T22:51:52.881Z,96668.42
2018-05-09T22:54:21.610Z,96673.67
2018-05-09T22:56:50.405Z,96664.29
2018-05-09T22:59:19.277Z,96662.83
2018-05-09T23:01:48.332Z,96661.35
2018-05-09T23:04:17.103Z,96663.80
2018-05-09T23:06:46.751Z,96656.97
2018-05-09T23:09:15.499Z,96659.80
2018-05-09T23:11:44.320Z,96661.00
2018-05-09T23:14:13.804Z,96661.08
2018-05-09T23:16:43.333Z,96654.53
2018-05-09T23:19:12.161Z,96655.01
2018-05-09T23:21:41.034Z,96654.63
2018-05-09T23:24:10.005Z,96653.88
2018-05-09T23:26:38.764Z,96654.79
2018-05-09T23:29:08.293Z,96654.87
2018-05-09T23:31:37.005Z,96647.06
2018-05-09T23:34:06.598Z,96645.68
2018-05-09T23:36:35.340Z,96651.30
2018-05-09T23:39:04.288Z,96649.44
2018-05-09T23:41:33.171Z,96651.36
2018-05-09T23:44:01.942Z,96652.38
2018-05-09T23:46:30.803Z,96655.81
2018-05-09T23:49:00.064Z,96652.73
2018-05-09T23:51:28.826Z,96653.49
2018-05-09T23:53:57.626Z,96654.44
2018-05-09T23:56:26.366Z,96653.89
2018-05-09T23:58:55.181Z,96656.44
